• Join FlightAware (Why Join?)
  • Login
  • US Flag 
05:27AM EDT


 

Airport Tracker/Info


-or-


 

Live Flight TrackerFlight Track Log ✈ ACA831 ✈ 03-May-2013 ✈ CYUL - CYYZ

Flight Track Log - Related Links

Times and Time Zones

All times are in EDT time to prevent confusion due to time zone crossing. See the ACA831 flight status page for this flight to view local times or setup timezone preferences in your user account.

Time Position Orientation Groundspeed Altitude Reporting Facility
EDT Latitude Longitude Course Direction KTS MPH feet Rate Location/Type
04:14PM 45.4720 -73.7190 145° Southeast 154 177 500  Level FlightAware
04:14PM 45.4900 -73.6980 39° Northeast 172 198 2,300 3,300 Climbing FlightAware
04:15PM 45.5080 -73.6780 38° Northeast 218 251 3,800 3,120 Climbing FlightAware
04:15PM 45.5200 -73.6730 16° North 233 268 4,400 3,360 Climbing FlightAware
04:15PM 45.5380 -73.6820 341° North 258 297 5,200 3,360 Climbing FlightAware
04:15PM 45.5490 -73.7000 311° West 273 314 6,100 4,200 Climbing FlightAware
04:16PM 45.5530 -73.7250 283° West 277 319 7,300 4,800 Climbing FlightAware
04:16PM 45.5480 -73.7550 257° West 284 327 8,500 4,080 Climbing FlightAware
04:16PM 45.5220 -73.8340 245° Southwest 330 380 11,200 3,600 Climbing FlightAware
04:17PM 45.5040 -73.9210 254° West 360 414 13,400 3,060 Climbing FlightAware
04:18PM 45.4850 -74.0230 255° West 378 435 15,500 2,700 Climbing FlightAware
04:19PM 45.4680 -74.1230 256° West 392 451 17,300 2,580 Climbing FlightAware
04:19PM 45.4500 -74.2230 256° West 403 464 19,000 2,580 Climbing FlightAware
04:20PM 45.4280 -74.3430 255° West 406 467 21,000 2,520 Climbing FlightAware
04:21PM 45.4090 -74.4480 256° West 420 483 22,600 2,520 Climbing FlightAware
04:21PM 45.3910 -74.5560 257° West 433 498 24,400 2,700 Climbing FlightAware
04:22PM 45.3690 -74.6820 256° West 450 518 26,500 2,520 Climbing FlightAware
04:23PM 45.3500 -74.7930 256° West 455 524 28,000 2,220 Climbing FlightAware
04:23PM 45.3260 -74.9310 256° West 454 522 29,700 1,920 Climbing FlightAware
04:24PM 45.3070 -75.0430 256° West 446 513 30,800 1,500 Climbing FlightAware
04:25PM 45.2850 -75.1680 256° West 444 511 31,900 1,440 Climbing FlightAware
04:26PM 45.2650 -75.2780 256° West 442 509 32,900 1,320 Climbing FlightAware
04:26PM 45.2450 -75.3940 256° West 444 511 33,700 720 Climbing FlightAware
04:27PM 45.2210 -75.5240 255° West 442 509 34,000 180 Climbing FlightAware
04:28PM 45.2010 -75.6350 256° West 434 499 34,000  Level FlightAware
04:28PM 45.1800 -75.7520 256° West 426 490 34,000  Level FlightAware
04:29PM 45.1620 -75.8480 255° West 424 488 34,000  Level FlightAware
04:30PM 45.1370 -75.9850 256° West 425 489 34,000  Level FlightAware
04:30PM 45.1220 -76.0660 255° West 425 489 34,000  Level FlightAware
04:31PM 45.0990 -76.1880 255° West 411 473 34,000  Level FlightAware
04:32PM 45.0660 -76.2970 247° West 403 464 34,000  Level FlightAware
04:32PM 45.0340 -76.3790 241° Southwest 402 463 34,000  Level FlightAware
04:33PM 44.9920 -76.4810 240° Southwest 401 461 34,000  Level FlightAware
04:34PM 44.9530 -76.5790 241° Southwest 395 455 34,000  Level FlightAware
04:35PM 44.9160 -76.6710 240° Southwest 392 451 34,000  Level FlightAware
04:35PM 44.8760 -76.7710 241° Southwest 391 450 34,000  Level FlightAware
04:36PM 44.8400 -76.8610 241° Southwest 386 444 34,000  Level FlightAware
04:37PM 44.8050 -76.9470 240° Southwest 384 442 34,000  Level FlightAware
04:37PM 44.7690 -77.0350 240° Southwest 384 442 34,000  Level FlightAware
04:38PM 44.7300 -77.1310 240° Southwest 383 441 34,000  Level FlightAware
04:39PM 44.6950 -77.2180 241° Southwest 383 441 34,000  Level FlightAware
04:40PM 44.6560 -77.3140 240° Southwest 384 442 34,000  Level FlightAware
04:40PM 44.6220 -77.3960 240° Southwest 384 442 34,000 -300 Level FlightAware
04:41PM 44.5810 -77.4940 240° Southwest 393 452 33,600 -660 Descending FlightAware
04:42PM 44.5440 -77.5860 241° Southwest 386 444 33,100 -780 Descending FlightAware
04:42PM 44.5100 -77.6680 240° Southwest 378 435 32,600 -720 Descending FlightAware
04:43PM 44.4720 -77.7580 239° Southwest 372 428 32,100 -720 Descending FlightAware
04:44PM 44.4300 -77.8580 240° Southwest 366 421 31,600 -720 Descending FlightAware
04:44PM 44.4070 -77.9290 246° West 361 415 31,200 -540 Descending FlightAware
04:45PM 44.4120 -78.0110 275° West 352 405 31,000 -180 Descending FlightAware
04:46PM 44.4400 -78.0700 304° West 351 404 31,000  Level FlightAware
04:46PM 44.4940 -78.1650 309° West 356 410 31,000 -180 Level FlightAware
04:47PM 44.5360 -78.2390 309° West 362 417 30,800 -780 Descending FlightAware
04:48PM 44.5660 -78.3210 297° West 355 409 30,000 -1,320 Descending FlightAware
04:49PM 44.5610 -78.4420 267° West 348 400 28,800 -1,380 Descending FlightAware
04:49PM 44.5470 -78.4680 233° Southwest 343 395 28,400 -1,440 Descending FlightAware
04:49PM 44.5270 -78.4870 214° Southwest 338 389 28,100 -1,320 Descending FlightAware
04:50PM 44.4710 -78.5230 205° Southwest 334 384 27,200 -1,440 Descending FlightAware
04:51PM 44.4070 -78.5620 204° Southwest 334 384 26,100 -1,440 Descending FlightAware
04:51PM 44.3500 -78.5970 204° Southwest 330 380 25,200 -1,320 Descending FlightAware
04:52PM 44.2910 -78.6340 204° Southwest 319 367 24,300 -1,380 Descending FlightAware
04:53PM 44.2360 -78.6680 204° Southwest 315 362 23,300 -1,500 Descending FlightAware
04:53PM 44.1830 -78.7010 204° Southwest 311 358 22,300 -1,500 Descending FlightAware
04:54PM 44.1240 -78.7380 204° Southwest 306 352 21,200 -1,500 Descending FlightAware
04:55PM 44.0730 -78.7690 204° Southwest 301 346 20,200 -1,500 Descending FlightAware
04:55PM 44.0360 -78.7970 209° Southwest 299 344 19,500 -1,500 Descending FlightAware
04:56PM 44.0050 -78.8560 234° Southwest 297 342 18,500 -1,440 Descending FlightAware
04:57PM 43.9710 -78.9300 237° Southwest 291 335 17,500 -1,320 Descending FlightAware
04:57PM 43.9430 -78.9930 238° Southwest 284 327 16,700 -1,200 Descending FlightAware
04:58PM 43.9160 -79.0520 238° Southwest 278 320 15,900 -1,200 Descending FlightAware
04:59PM 43.8840 -79.1200 237° Southwest 275 316 15,000 -1,200 Descending FlightAware
04:59PM 43.8570 -79.1790 238° Southwest 270 311 14,200 -1,440 Descending FlightAware
05:00PM 43.8270 -79.2440 237° Southwest 268 308 13,000 -1,560 Descending FlightAware
05:01PM 43.8010 -79.3020 238° Southwest 264 304 12,000 -1,560 Descending FlightAware
05:02PM 43.7660 -79.3590 230° Southwest 253 291 10,800 -1,500 Descending FlightAware
05:02PM 43.7300 -79.3950 216° Southwest 236 272 9,900 -1,440 Descending FlightAware
05:03PM 43.7080 -79.4160 215° Southwest 232 267 9,300 -1,440 Descending FlightAware
05:03PM 43.6810 -79.4420 215° Southwest 233 268 8,600 -1,320 Descending FlightAware
05:04PM 43.6540 -79.4670 214° Southwest 234 269 8,000 -1,200 Descending FlightAware
05:04PM 43.6330 -79.4880 216° Southwest 234 269 7,500 -1,320 Descending FlightAware
05:05PM 43.6060 -79.5140 215° Southwest 231 266 6,800 -1,440 Descending FlightAware
05:05PM 43.5850 -79.5380 220° Southwest 231 266 6,200 -1,320 Descending FlightAware
05:05PM 43.5630 -79.5700 227° Southwest 232 267 5,600 -1,320 Descending FlightAware
05:06PM 43.5410 -79.6050 229° Southwest 234 269 4,900 -1,200 Descending FlightAware
05:06PM 43.5270 -79.6350 237° Southwest 228 262 4,500 -900 Descending FlightAware
05:07PM 43.5100 -79.6700 236° Southwest 216 249 4,100 -900 Descending FlightAware
05:07PM 43.4990 -79.6980 242° Southwest 216 249 3,700 -840 Descending FlightAware
05:08PM 43.5040 -79.7260 284° West 217 250 3,500 -720 Descending FlightAware
05:08PM 43.5200 -79.7510 311° West 210 242 3,200 -720 Descending FlightAware
05:08PM 43.5270 -79.7600 317° Northwest 208 239 3,100 -600 Descending FlightAware
05:08PM 43.5360 -79.7640 342° North 205 236 3,000 -420 Descending FlightAware
05:09PM 43.5540 -79.7550 20° North 199 229 2,900 -360 Descending FlightAware
05:09PM 43.5650 -79.7400 45° Northeast 197 227 2,800 -720 Descending FlightAware
05:09PM 43.5840 -79.7140 45° Northeast 185 213 2,400 -840 Descending FlightAware
05:10PM 43.6010 -79.6890 47° Northeast 177 204 2,000 -900 Descending FlightAware
05:10PM 43.6130 -79.6720 46° Northeast 165 190 1,600 -900 Descending FlightAware
05:11PM 43.6280 -79.6510 45° Northeast 144 166 1,200 -780 Descending FlightAware
05:11PM 43.6390 -79.6350 46° Northeast 134 154 900 -660 Descending FlightAware
05:12PM 43.6510 -79.6170 47° Northeast 131 151 600 -540 Descending FlightAware
05:12PM 43.6520 -79.6160 36° Northeast 128 147 600  Level FlightAware
05:12PM 43.6620 -79.6020 45° Northeast 128 147 600  Level FlightAware